<?xml version="1.0" encoding="UTF-8" standalone="no" ?>
<gpx xmlns="http://www.topografix.com/GPX/1/1" xmlns:xsi="http://www.w3.org/2001/XMLSchema-instance" xsi:schemaLocation="http://www.topografix.com/GPX/1/1 http://www.topografix.com/GPX/1/1/gpx.xsd" version="1.1" creator="VisuGPX - https://www.visugpx.com">
  <metadata>
    <name>ESCAPADE-PILAT-Etape1-Boucles1et 2</name>
  </metadata>
  <trk>
    <name><![CDATA[13138255-Boucle Bonnefond A (cavaliers)]]></name>
    <extensions>
      <line xmlns="http://www.topografix.com/GPX/gpx_style/0/2">
        <color>0000FF</color>
        <width>4</width>
      </line>
    </extensions>
    <trkseg>
      <trkpt lat="45.38153" lon="4.36769">
        <ele>841</ele>
        <time>2021-06-03T13:59:49Z</time>
      </trkpt>
      <trkpt lat="45.38165" lon="4.36801">
        <ele>845</ele>
        <time>2021-06-03T14:00:09Z</time>
      </trkpt>
      <trkpt lat="45.38123" lon="4.36829">
        <ele>849</ele>
        <time>2021-06-03T14:00:47Z</time>
      </trkpt>
      <trkpt lat="45.38075" lon="4.36873">
        <ele>851</ele>
        <time>2021-06-03T14:01:32Z</time>
      </trkpt>
      <trkpt lat="45.38062" lon="4.36886">
        <ele>852</ele>
        <time>2021-06-03T14:01:45Z</time>
      </trkpt>
      <trkpt lat="45.38017" lon="4.36858">
        <ele>852</ele>
        <time>2021-06-03T14:02:24Z</time>
      </trkpt>
      <trkpt lat="45.37942" lon="4.37058">
        <ele>863</ele>
        <time>2021-06-03T14:04:32Z</time>
      </trkpt>
      <trkpt lat="45.37925" lon="4.37088">
        <ele>866</ele>
        <time>2021-06-03T14:04:53Z</time>
      </trkpt>
      <trkpt lat="45.3787" lon="4.37151">
        <ele>866</ele>
        <time>2021-06-03T14:05:50Z</time>
      </trkpt>
      <trkpt lat="45.37761" lon="4.37237">
        <ele>857</ele>
        <time>2021-06-03T14:07:30Z</time>
      </trkpt>
      <trkpt lat="45.37665" lon="4.37305">
        <ele>854</ele>
        <time>2021-06-03T14:08:56Z</time>
      </trkpt>
      <trkpt lat="45.37518" lon="4.3731">
        <ele>866</ele>
        <time>2021-06-03T14:10:53Z</time>
      </trkpt>
      <trkpt lat="45.37444" lon="4.37278">
        <ele>871</ele>
        <time>2021-06-03T14:11:55Z</time>
      </trkpt>
      <trkpt lat="45.37405" lon="4.37245">
        <ele>872</ele>
        <time>2021-06-03T14:12:32Z</time>
      </trkpt>
      <trkpt lat="45.37385" lon="4.37293">
        <ele>870</ele>
        <time>2021-06-03T14:13:03Z</time>
      </trkpt>
      <trkpt lat="45.37351" lon="4.37331">
        <ele>869</ele>
        <time>2021-06-03T14:13:38Z</time>
      </trkpt>
      <trkpt lat="45.37298" lon="4.37375">
        <ele>872</ele>
        <time>2021-06-03T14:14:27Z</time>
      </trkpt>
      <trkpt lat="45.37277" lon="4.37404">
        <ele>874</ele>
        <time>2021-06-03T14:14:50Z</time>
      </trkpt>
      <trkpt lat="45.3724" lon="4.3746">
        <ele>879</ele>
        <time>2021-06-03T14:15:33Z</time>
      </trkpt>
      <trkpt lat="45.3718" lon="4.37542">
        <ele>883</ele>
        <time>2021-06-03T14:16:40Z</time>
      </trkpt>
      <trkpt lat="45.37085" lon="4.37608">
        <ele>880</ele>
        <time>2021-06-03T14:18:05Z</time>
      </trkpt>
      <trkpt lat="45.3698" lon="4.37652">
        <ele>875</ele>
        <time>2021-06-03T14:19:32Z</time>
      </trkpt>
      <trkpt lat="45.36921" lon="4.37671">
        <ele>872</ele>
        <time>2021-06-03T14:20:21Z</time>
      </trkpt>
      <trkpt lat="45.36857" lon="4.37676">
        <ele>871</ele>
        <time>2021-06-03T14:21:12Z</time>
      </trkpt>
      <trkpt lat="45.36809" lon="4.37706">
        <ele>871</ele>
        <time>2021-06-03T14:21:54Z</time>
      </trkpt>
      <trkpt lat="45.36789" lon="4.37728">
        <ele>871</ele>
        <time>2021-06-03T14:22:14Z</time>
      </trkpt>
      <trkpt lat="45.36792" lon="4.37788">
        <ele>867</ele>
        <time>2021-06-03T14:22:48Z</time>
      </trkpt>
      <trkpt lat="45.36775" lon="4.37853">
        <ele>865</ele>
        <time>2021-06-03T14:23:27Z</time>
      </trkpt>
      <trkpt lat="45.36731" lon="4.37894">
        <ele>866</ele>
        <time>2021-06-03T14:24:09Z</time>
      </trkpt>
      <trkpt lat="45.36675" lon="4.379">
        <ele>870</ele>
        <time>2021-06-03T14:24:54Z</time>
      </trkpt>
      <trkpt lat="45.36619" lon="4.37927">
        <ele>871</ele>
        <time>2021-06-03T14:25:42Z</time>
      </trkpt>
      <trkpt lat="45.36568" lon="4.37932">
        <ele>874</ele>
        <time>2021-06-03T14:26:22Z</time>
      </trkpt>
      <trkpt lat="45.36521" lon="4.37948">
        <ele>877</ele>
        <time>2021-06-03T14:27:01Z</time>
      </trkpt>
      <trkpt lat="45.36513" lon="4.3796">
        <ele>876</ele>
        <time>2021-06-03T14:27:10Z</time>
      </trkpt>
      <trkpt lat="45.36477" lon="4.37982">
        <ele>877</ele>
        <time>2021-06-03T14:27:42Z</time>
      </trkpt>
      <trkpt lat="45.3642" lon="4.38004">
        <ele>880</ele>
        <time>2021-06-03T14:28:29Z</time>
      </trkpt>
      <trkpt lat="45.36399" lon="4.38013">
        <ele>881</ele>
        <time>2021-06-03T14:28:47Z</time>
      </trkpt>
      <trkpt lat="45.36344" lon="4.38091">
        <ele>886</ele>
        <time>2021-06-03T14:29:49Z</time>
      </trkpt>
      <trkpt lat="45.36325" lon="4.38045">
        <ele>889</ele>
        <time>2021-06-03T14:30:19Z</time>
      </trkpt>
      <trkpt lat="45.36298" lon="4.38001">
        <ele>892</ele>
        <time>2021-06-03T14:30:52Z</time>
      </trkpt>
      <trkpt lat="45.36255" lon="4.37955">
        <ele>895</ele>
        <time>2021-06-03T14:31:35Z</time>
      </trkpt>
      <trkpt lat="45.36225" lon="4.37931">
        <ele>897</ele>
        <time>2021-06-03T14:32:02Z</time>
      </trkpt>
      <trkpt lat="45.36214" lon="4.37916">
        <ele>897</ele>
        <time>2021-06-03T14:32:15Z</time>
      </trkpt>
      <trkpt lat="45.36196" lon="4.37884">
        <ele>894</ele>
        <time>2021-06-03T14:32:38Z</time>
      </trkpt>
      <trkpt lat="45.36183" lon="4.37802">
        <ele>887</ele>
        <time>2021-06-03T14:33:25Z</time>
      </trkpt>
      <trkpt lat="45.36187" lon="4.37676">
        <ele>877</ele>
        <time>2021-06-03T14:34:36Z</time>
      </trkpt>
      <trkpt lat="45.36174" lon="4.37542">
        <ele>863</ele>
        <time>2021-06-03T14:35:52Z</time>
      </trkpt>
      <trkpt lat="45.36171" lon="4.37509">
        <ele>860</ele>
        <time>2021-06-03T14:36:11Z</time>
      </trkpt>
      <trkpt lat="45.36127" lon="4.37519">
        <ele>860</ele>
        <time>2021-06-03T14:36:46Z</time>
      </trkpt>
      <trkpt lat="45.36095" lon="4.37541">
        <ele>861</ele>
        <time>2021-06-03T14:37:15Z</time>
      </trkpt>
      <trkpt lat="45.36057" lon="4.37588">
        <ele>866</ele>
        <time>2021-06-03T14:37:55Z</time>
      </trkpt>
      <trkpt lat="45.36045" lon="4.37584">
        <ele>866</ele>
        <time>2021-06-03T14:38:05Z</time>
      </trkpt>
      <trkpt lat="45.36032" lon="4.3752">
        <ele>865</ele>
        <time>2021-06-03T14:38:42Z</time>
      </trkpt>
      <trkpt lat="45.36012" lon="4.37474">
        <ele>864</ele>
        <time>2021-06-03T14:39:13Z</time>
      </trkpt>
      <trkpt lat="45.35978" lon="4.37446">
        <ele>865</ele>
        <time>2021-06-03T14:39:44Z</time>
      </trkpt>
      <trkpt lat="45.35935" lon="4.37419">
        <ele>865</ele>
        <time>2021-06-03T14:40:22Z</time>
      </trkpt>
      <trkpt lat="45.35897" lon="4.37372">
        <ele>863</ele>
        <time>2021-06-03T14:41:02Z</time>
      </trkpt>
      <trkpt lat="45.35861" lon="4.3732">
        <ele>864</ele>
        <time>2021-06-03T14:41:43Z</time>
      </trkpt>
      <trkpt lat="45.35817" lon="4.37266">
        <ele>867</ele>
        <time>2021-06-03T14:42:30Z</time>
      </trkpt>
      <trkpt lat="45.35775" lon="4.37242">
        <ele>866</ele>
        <time>2021-06-03T14:43:06Z</time>
      </trkpt>
      <trkpt lat="45.35743" lon="4.37231">
        <ele>864</ele>
        <time>2021-06-03T14:43:32Z</time>
      </trkpt>
      <trkpt lat="45.3569" lon="4.37209">
        <ele>858</ele>
        <time>2021-06-03T14:44:17Z</time>
      </trkpt>
      <trkpt lat="45.35679" lon="4.37195">
        <ele>856</ele>
        <time>2021-06-03T14:44:28Z</time>
      </trkpt>
      <trkpt lat="45.35668" lon="4.37154">
        <ele>854</ele>
        <time>2021-06-03T14:44:53Z</time>
      </trkpt>
      <trkpt lat="45.35656" lon="4.3713">
        <ele>852</ele>
        <time>2021-06-03T14:45:10Z</time>
      </trkpt>
      <trkpt lat="45.3563" lon="4.37094">
        <ele>848</ele>
        <time>2021-06-03T14:45:39Z</time>
      </trkpt>
      <trkpt lat="45.35622" lon="4.37052">
        <ele>847</ele>
        <time>2021-06-03T14:46:03Z</time>
      </trkpt>
      <trkpt lat="45.35618" lon="4.36966">
        <ele>846</ele>
        <time>2021-06-03T14:46:52Z</time>
      </trkpt>
      <trkpt lat="45.35621" lon="4.36855">
        <ele>840</ele>
        <time>2021-06-03T14:47:54Z</time>
      </trkpt>
      <trkpt lat="45.35632" lon="4.36761">
        <ele>830</ele>
        <time>2021-06-03T14:48:48Z</time>
      </trkpt>
      <trkpt lat="45.35642" lon="4.36699">
        <ele>822</ele>
        <time>2021-06-03T14:49:24Z</time>
      </trkpt>
      <trkpt lat="45.35626" lon="4.36701">
        <ele>819</ele>
        <time>2021-06-03T14:49:37Z</time>
      </trkpt>
      <trkpt lat="45.35599" lon="4.36715">
        <ele>816</ele>
        <time>2021-06-03T14:50:00Z</time>
      </trkpt>
      <trkpt lat="45.35579" lon="4.36724">
        <ele>814</ele>
        <time>2021-06-03T14:50:16Z</time>
      </trkpt>
      <trkpt lat="45.35572" lon="4.36704">
        <ele>809</ele>
        <time>2021-06-03T14:50:29Z</time>
      </trkpt>
      <trkpt lat="45.35582" lon="4.36668">
        <ele>806</ele>
        <time>2021-06-03T14:50:51Z</time>
      </trkpt>
      <trkpt lat="45.35605" lon="4.36623">
        <ele>802</ele>
        <time>2021-06-03T14:51:22Z</time>
      </trkpt>
      <trkpt lat="45.356" lon="4.36609">
        <ele>799</ele>
        <time>2021-06-03T14:51:31Z</time>
      </trkpt>
      <trkpt lat="45.35577" lon="4.36622">
        <ele>798</ele>
        <time>2021-06-03T14:51:51Z</time>
      </trkpt>
      <trkpt lat="45.35551" lon="4.36648">
        <ele>798</ele>
        <time>2021-06-03T14:52:16Z</time>
      </trkpt>
      <trkpt lat="45.3553" lon="4.36682">
        <ele>797</ele>
        <time>2021-06-03T14:52:42Z</time>
      </trkpt>
      <trkpt lat="45.35518" lon="4.36713">
        <ele>796</ele>
        <time>2021-06-03T14:53:01Z</time>
      </trkpt>
      <trkpt lat="45.35518" lon="4.36685">
        <ele>794</ele>
        <time>2021-06-03T14:53:17Z</time>
      </trkpt>
      <trkpt lat="45.35529" lon="4.36635">
        <ele>793</ele>
        <time>2021-06-03T14:53:47Z</time>
      </trkpt>
      <trkpt lat="45.35536" lon="4.36593">
        <ele>791</ele>
        <time>2021-06-03T14:54:11Z</time>
      </trkpt>
      <trkpt lat="45.35536" lon="4.36544">
        <ele>790</ele>
        <time>2021-06-03T14:54:39Z</time>
      </trkpt>
      <trkpt lat="45.35541" lon="4.36502">
        <ele>789</ele>
        <time>2021-06-03T14:55:03Z</time>
      </trkpt>
      <trkpt lat="45.35574" lon="4.36468">
        <ele>787</ele>
        <time>2021-06-03T14:55:35Z</time>
      </trkpt>
      <trkpt lat="45.35584" lon="4.36426">
        <ele>793</ele>
        <time>2021-06-03T14:56:00Z</time>
      </trkpt>
      <trkpt lat="45.35614" lon="4.36405">
        <ele>791</ele>
        <time>2021-06-03T14:56:27Z</time>
      </trkpt>
      <trkpt lat="45.35637" lon="4.36386">
        <ele>791</ele>
        <time>2021-06-03T14:56:48Z</time>
      </trkpt>
      <trkpt lat="45.35666" lon="4.36329">
        <ele>798</ele>
        <time>2021-06-03T14:57:28Z</time>
      </trkpt>
      <trkpt lat="45.35695" lon="4.36306">
        <ele>804</ele>
        <time>2021-06-03T14:57:54Z</time>
      </trkpt>
      <trkpt lat="45.35739" lon="4.36304">
        <ele>801</ele>
        <time>2021-06-03T14:58:30Z</time>
      </trkpt>
      <trkpt lat="45.35787" lon="4.36323">
        <ele>794</ele>
        <time>2021-06-03T14:59:09Z</time>
      </trkpt>
      <trkpt lat="45.35822" lon="4.36297">
        <ele>799</ele>
        <time>2021-06-03T14:59:41Z</time>
      </trkpt>
      <trkpt lat="45.35844" lon="4.36252">
        <ele>804</ele>
        <time>2021-06-03T15:00:12Z</time>
      </trkpt>
      <trkpt lat="45.35802" lon="4.36223">
        <ele>811</ele>
        <time>2021-06-03T15:00:49Z</time>
      </trkpt>
      <trkpt lat="45.35735" lon="4.36187">
        <ele>826</ele>
        <time>2021-06-03T15:01:47Z</time>
      </trkpt>
      <trkpt lat="45.35698" lon="4.36133">
        <ele>837</ele>
        <time>2021-06-03T15:02:29Z</time>
      </trkpt>
      <trkpt lat="45.35683" lon="4.36043">
        <ele>843</ele>
        <time>2021-06-03T15:03:21Z</time>
      </trkpt>
      <trkpt lat="45.35684" lon="4.3602">
        <ele>843</ele>
        <time>2021-06-03T15:03:34Z</time>
      </trkpt>
      <trkpt lat="45.35681" lon="4.3598">
        <ele>847</ele>
        <time>2021-06-03T15:03:57Z</time>
      </trkpt>
      <trkpt lat="45.35678" lon="4.35939">
        <ele>854</ele>
        <time>2021-06-03T15:04:20Z</time>
      </trkpt>
      <trkpt lat="45.35714" lon="4.35936">
        <ele>849</ele>
        <time>2021-06-03T15:04:49Z</time>
      </trkpt>
      <trkpt lat="45.35749" lon="4.35934">
        <ele>844</ele>
        <time>2021-06-03T15:05:17Z</time>
      </trkpt>
      <trkpt lat="45.35783" lon="4.35905">
        <ele>853</ele>
        <time>2021-06-03T15:05:49Z</time>
      </trkpt>
      <trkpt lat="45.35839" lon="4.35911">
        <ele>854</ele>
        <time>2021-06-03T15:06:34Z</time>
      </trkpt>
      <trkpt lat="45.35895" lon="4.35902">
        <ele>861</ele>
        <time>2021-06-03T15:07:19Z</time>
      </trkpt>
      <trkpt lat="45.35943" lon="4.35868">
        <ele>869</ele>
        <time>2021-06-03T15:08:02Z</time>
      </trkpt>
      <trkpt lat="45.3601" lon="4.35849">
        <ele>867</ele>
        <time>2021-06-03T15:08:56Z</time>
      </trkpt>
      <trkpt lat="45.36" lon="4.35782">
        <ele>876</ele>
        <time>2021-06-03T15:09:35Z</time>
      </trkpt>
      <trkpt lat="45.35999" lon="4.35725">
        <ele>884</ele>
        <time>2021-06-03T15:10:07Z</time>
      </trkpt>
      <trkpt lat="45.35982" lon="4.3565">
        <ele>894</ele>
        <time>2021-06-03T15:10:51Z</time>
      </trkpt>
      <trkpt lat="45.35968" lon="4.35573">
        <ele>901</ele>
        <time>2021-06-03T15:11:36Z</time>
      </trkpt>
      <trkpt lat="45.35967" lon="4.35553">
        <ele>902</ele>
        <time>2021-06-03T15:11:47Z</time>
      </trkpt>
      <trkpt lat="45.35977" lon="4.35522">
        <ele>903</ele>
        <time>2021-06-03T15:12:06Z</time>
      </trkpt>
      <trkpt lat="45.35958" lon="4.35478">
        <ele>904</ele>
        <time>2021-06-03T15:12:36Z</time>
      </trkpt>
      <trkpt lat="45.35922" lon="4.35443">
        <ele>906</ele>
        <time>2021-06-03T15:13:10Z</time>
      </trkpt>
      <trkpt lat="45.35892" lon="4.35419">
        <ele>909</ele>
        <time>2021-06-03T15:13:38Z</time>
      </trkpt>
      <trkpt lat="45.35883" lon="4.35374">
        <ele>911</ele>
        <time>2021-06-03T15:14:04Z</time>
      </trkpt>
      <trkpt lat="45.35876" lon="4.35335">
        <ele>912</ele>
        <time>2021-06-03T15:14:27Z</time>
      </trkpt>
      <trkpt lat="45.35857" lon="4.35272">
        <ele>915</ele>
        <time>2021-06-03T15:15:06Z</time>
      </trkpt>
      <trkpt lat="45.3583" lon="4.35199">
        <ele>912</ele>
        <time>2021-06-03T15:15:52Z</time>
      </trkpt>
      <trkpt lat="45.35804" lon="4.35124">
        <ele>912</ele>
        <time>2021-06-03T15:16:39Z</time>
      </trkpt>
      <trkpt lat="45.35791" lon="4.35079">
        <ele>912</ele>
        <time>2021-06-03T15:17:06Z</time>
      </trkpt>
      <trkpt lat="45.35748" lon="4.35125">
        <ele>921</ele>
        <time>2021-06-03T15:17:49Z</time>
      </trkpt>
      <trkpt lat="45.35693" lon="4.3519">
        <ele>928</ele>
        <time>2021-06-03T15:18:47Z</time>
      </trkpt>
      <trkpt lat="45.35602" lon="4.35244">
        <ele>930</ele>
        <time>2021-06-03T15:20:06Z</time>
      </trkpt>
      <trkpt lat="45.35525" lon="4.35308">
        <ele>929</ele>
        <time>2021-06-03T15:21:17Z</time>
      </trkpt>
      <trkpt lat="45.35471" lon="4.35355">
        <ele>926</ele>
        <time>2021-06-03T15:22:08Z</time>
      </trkpt>
      <trkpt lat="45.35406" lon="4.35428">
        <ele>922</ele>
        <time>2021-06-03T15:23:14Z</time>
      </trkpt>
      <trkpt lat="45.35303" lon="4.35535">
        <ele>912</ele>
        <time>2021-06-03T15:24:56Z</time>
      </trkpt>
      <trkpt lat="45.35249" lon="4.35601">
        <ele>909</ele>
        <time>2021-06-03T15:25:53Z</time>
      </trkpt>
      <trkpt lat="45.35175" lon="4.35702">
        <ele>906</ele>
        <time>2021-06-03T15:27:15Z</time>
      </trkpt>
      <trkpt lat="45.35149" lon="4.35742">
        <ele>906</ele>
        <time>2021-06-03T15:27:46Z</time>
      </trkpt>
      <trkpt lat="45.35127" lon="4.35814">
        <ele>907</ele>
        <time>2021-06-03T15:28:30Z</time>
      </trkpt>
      <trkpt lat="45.35078" lon="4.35888">
        <ele>908</ele>
        <time>2021-06-03T15:29:27Z</time>
      </trkpt>
      <trkpt lat="45.35033" lon="4.35942">
        <ele>907</ele>
        <time>2021-06-03T15:30:14Z</time>
      </trkpt>
      <trkpt lat="45.34972" lon="4.35981">
        <ele>906</ele>
        <time>2021-06-03T15:31:08Z</time>
      </trkpt>
      <trkpt lat="45.34911" lon="4.3601">
        <ele>906</ele>
        <time>2021-06-03T15:31:59Z</time>
      </trkpt>
      <trkpt lat="45.34881" lon="4.36052">
        <ele>909</ele>
        <time>2021-06-03T15:32:33Z</time>
      </trkpt>
      <trkpt lat="45.34885" lon="4.36103">
        <ele>911</ele>
        <time>2021-06-03T15:33:02Z</time>
      </trkpt>
      <trkpt lat="45.34881" lon="4.36188">
        <ele>916</ele>
        <time>2021-06-03T15:33:50Z</time>
      </trkpt>
      <trkpt lat="45.34872" lon="4.36253">
        <ele>921</ele>
        <time>2021-06-03T15:34:27Z</time>
      </trkpt>
      <trkpt lat="45.34859" lon="4.36317">
        <ele>919</ele>
        <time>2021-06-03T15:35:05Z</time>
      </trkpt>
      <trkpt lat="45.3484" lon="4.36412">
        <ele>914</ele>
        <time>2021-06-03T15:36:00Z</time>
      </trkpt>
      <trkpt lat="45.34824" lon="4.36458">
        <ele>914</ele>
        <time>2021-06-03T15:36:29Z</time>
      </trkpt>
      <trkpt lat="45.34819" lon="4.36488">
        <ele>912</ele>
        <time>2021-06-03T15:36:47Z</time>
      </trkpt>
      <trkpt lat="45.34812" lon="4.36514">
        <ele>911</ele>
        <time>2021-06-03T15:37:02Z</time>
      </trkpt>
      <trkpt lat="45.34805" lon="4.36532">
        <ele>911</ele>
        <time>2021-06-03T15:37:14Z</time>
      </trkpt>
      <trkpt lat="45.34794" lon="4.36567">
        <ele>911</ele>
        <time>2021-06-03T15:37:35Z</time>
      </trkpt>
      <trkpt lat="45.34758" lon="4.36664">
        <ele>908</ele>
        <time>2021-06-03T15:38:37Z</time>
      </trkpt>
      <trkpt lat="45.34728" lon="4.36734">
        <ele>900</ele>
        <time>2021-06-03T15:39:23Z</time>
      </trkpt>
      <trkpt lat="45.34715" lon="4.36779">
        <ele>895</ele>
        <time>2021-06-03T15:39:51Z</time>
      </trkpt>
      <trkpt lat="45.34675" lon="4.36837">
        <ele>889</ele>
        <time>2021-06-03T15:40:36Z</time>
      </trkpt>
      <trkpt lat="45.34625" lon="4.36901">
        <ele>883</ele>
        <time>2021-06-03T15:41:30Z</time>
      </trkpt>
      <trkpt lat="45.34548" lon="4.3699">
        <ele>874</ele>
        <time>2021-06-03T15:42:50Z</time>
      </trkpt>
      <trkpt lat="45.34522" lon="4.37042">
        <ele>875</ele>
        <time>2021-06-03T15:43:25Z</time>
      </trkpt>
      <trkpt lat="45.3449" lon="4.37074">
        <ele>878</ele>
        <time>2021-06-03T15:43:57Z</time>
      </trkpt>
      <trkpt lat="45.34445" lon="4.3713">
        <ele>887</ele>
        <time>2021-06-03T15:44:45Z</time>
      </trkpt>
      <trkpt lat="45.34438" lon="4.37157">
        <ele>891</ele>
        <time>2021-06-03T15:45:01Z</time>
      </trkpt>
      <trkpt lat="45.3446" lon="4.37203">
        <ele>894</ele>
        <time>2021-06-03T15:45:32Z</time>
      </trkpt>
      <trkpt lat="45.34486" lon="4.37263">
        <ele>898</ele>
        <time>2021-06-03T15:46:12Z</time>
      </trkpt>
      <trkpt lat="45.34549" lon="4.37301">
        <ele>900</ele>
        <time>2021-06-03T15:47:07Z</time>
      </trkpt>
      <trkpt lat="45.34599" lon="4.37324">
        <ele>902</ele>
        <time>2021-06-03T15:47:49Z</time>
      </trkpt>
      <trkpt lat="45.34613" lon="4.37364">
        <ele>904</ele>
        <time>2021-06-03T15:48:14Z</time>
      </trkpt>
      <trkpt lat="45.34613" lon="4.37415">
        <ele>906</ele>
        <time>2021-06-03T15:48:43Z</time>
      </trkpt>
      <trkpt lat="45.34592" lon="4.37459">
        <ele>909</ele>
        <time>2021-06-03T15:49:12Z</time>
      </trkpt>
      <trkpt lat="45.34579" lon="4.37494">
        <ele>912</ele>
        <time>2021-06-03T15:49:35Z</time>
      </trkpt>
      <trkpt lat="45.34567" lon="4.37505">
        <ele>912</ele>
        <time>2021-06-03T15:49:46Z</time>
      </trkpt>
      <trkpt lat="45.34541" lon="4.37524">
        <ele>912</ele>
        <time>2021-06-03T15:50:10Z</time>
      </trkpt>
      <trkpt lat="45.345" lon="4.37531">
        <ele>912</ele>
        <time>2021-06-03T15:50:43Z</time>
      </trkpt>
      <trkpt lat="45.34458" lon="4.37552">
        <ele>913</ele>
        <time>2021-06-03T15:51:18Z</time>
      </trkpt>
      <trkpt lat="45.34419" lon="4.37578">
        <ele>915</ele>
        <time>2021-06-03T15:51:53Z</time>
      </trkpt>
      <trkpt lat="45.34364" lon="4.37593">
        <ele>915</ele>
        <time>2021-06-03T15:52:38Z</time>
      </trkpt>
      <trkpt lat="45.3432" lon="4.37625">
        <ele>918</ele>
        <time>2021-06-03T15:53:17Z</time>
      </trkpt>
      <trkpt lat="45.34283" lon="4.37661">
        <ele>922</ele>
        <time>2021-06-03T15:53:53Z</time>
      </trkpt>
      <trkpt lat="45.34224" lon="4.37669">
        <ele>924</ele>
        <time>2021-06-03T15:54:41Z</time>
      </trkpt>
      <trkpt lat="45.34154" lon="4.37688">
        <ele>928</ele>
        <time>2021-06-03T15:55:38Z</time>
      </trkpt>
      <trkpt lat="45.341" lon="4.37723">
        <ele>928</ele>
        <time>2021-06-03T15:56:25Z</time>
      </trkpt>
      <trkpt lat="45.34037" lon="4.37764">
        <ele>929</ele>
        <time>2021-06-03T15:57:21Z</time>
      </trkpt>
      <trkpt lat="45.33963" lon="4.37795">
        <ele>928</ele>
        <time>2021-06-03T15:58:22Z</time>
      </trkpt>
      <trkpt lat="45.33888" lon="4.37785">
        <ele>927</ele>
        <time>2021-06-03T15:59:23Z</time>
      </trkpt>
      <trkpt lat="45.3384" lon="4.37743">
        <ele>928</ele>
        <time>2021-06-03T16:00:08Z</time>
      </trkpt>
      <trkpt lat="45.33781" lon="4.3769">
        <ele>929</ele>
        <time>2021-06-03T16:01:04Z</time>
      </trkpt>
      <trkpt lat="45.33763" lon="4.37703">
        <ele>929</ele>
        <time>2021-06-03T16:01:20Z</time>
      </trkpt>
      <trkpt lat="45.3374" lon="4.37749">
        <ele>928</ele>
        <time>2021-06-03T16:01:52Z</time>
      </trkpt>
      <trkpt lat="45.33721" lon="4.37837">
        <ele>927</ele>
        <time>2021-06-03T16:02:43Z</time>
      </trkpt>
      <trkpt lat="45.33711" lon="4.37936">
        <ele>924</ele>
        <time>2021-06-03T16:03:40Z</time>
      </trkpt>
      <trkpt lat="45.33692" lon="4.37999">
        <ele>922</ele>
        <time>2021-06-03T16:04:18Z</time>
      </trkpt>
      <trkpt lat="45.33674" lon="4.37983">
        <ele>921</ele>
        <time>2021-06-03T16:04:35Z</time>
      </trkpt>
      <trkpt lat="45.33649" lon="4.37949">
        <ele>920</ele>
        <time>2021-06-03T16:05:03Z</time>
      </trkpt>
      <trkpt lat="45.33632" lon="4.37931">
        <ele>920</ele>
        <time>2021-06-03T16:05:20Z</time>
      </trkpt>
      <trkpt lat="45.33592" lon="4.37927">
        <ele>918</ele>
        <time>2021-06-03T16:05:52Z</time>
      </trkpt>
      <trkpt lat="45.33566" lon="4.37934">
        <ele>917</ele>
        <time>2021-06-03T16:06:13Z</time>
      </trkpt>
      <trkpt lat="45.33556" lon="4.37928">
        <ele>917</ele>
        <time>2021-06-03T16:06:22Z</time>
      </trkpt>
      <trkpt lat="45.33553" lon="4.37901">
        <ele>918</ele>
        <time>2021-06-03T16:06:37Z</time>
      </trkpt>
      <trkpt lat="45.33547" lon="4.37889">
        <ele>918</ele>
        <time>2021-06-03T16:06:46Z</time>
      </trkpt>
      <trkpt lat="45.33537" lon="4.37897">
        <ele>918</ele>
        <time>2021-06-03T16:06:55Z</time>
      </trkpt>
      <trkpt lat="45.33532" lon="4.37917">
        <ele>917</ele>
        <time>2021-06-03T16:07:07Z</time>
      </trkpt>
      <trkpt lat="45.33527" lon="4.37934">
        <ele>917</ele>
        <time>2021-06-03T16:07:17Z</time>
      </trkpt>
      <trkpt lat="45.33519" lon="4.37945">
        <ele>917</ele>
        <time>2021-06-03T16:07:26Z</time>
      </trkpt>
      <trkpt lat="45.33495" lon="4.37947">
        <ele>918</ele>
        <time>2021-06-03T16:07:45Z</time>
      </trkpt>
      <trkpt lat="45.33482" lon="4.37953">
        <ele>919</ele>
        <time>2021-06-03T16:07:56Z</time>
      </trkpt>
      <trkpt lat="45.33485" lon="4.38004">
        <ele>920</ele>
        <time>2021-06-03T16:08:25Z</time>
      </trkpt>
      <trkpt lat="45.33485" lon="4.38066">
        <ele>916</ele>
        <time>2021-06-03T16:09:00Z</time>
      </trkpt>
      <trkpt lat="45.33463" lon="4.38117">
        <ele>916</ele>
        <time>2021-06-03T16:09:34Z</time>
      </trkpt>
      <trkpt lat="45.33434" lon="4.38168">
        <ele>913</ele>
        <time>2021-06-03T16:10:10Z</time>
      </trkpt>
      <trkpt lat="45.33403" lon="4.38223">
        <ele>909</ele>
        <time>2021-06-03T16:10:50Z</time>
      </trkpt>
      <trkpt lat="45.33358" lon="4.38254">
        <ele>909</ele>
        <time>2021-06-03T16:11:30Z</time>
      </trkpt>
      <trkpt lat="45.33293" lon="4.38262">
        <ele>909</ele>
        <time>2021-06-03T16:12:22Z</time>
      </trkpt>
      <trkpt lat="45.33214" lon="4.38267">
        <ele>907</ele>
        <time>2021-06-03T16:13:26Z</time>
      </trkpt>
      <trkpt lat="45.33154" lon="4.38267">
        <ele>908</ele>
        <time>2021-06-03T16:14:14Z</time>
      </trkpt>
      <trkpt lat="45.33113" lon="4.38313">
        <ele>904</ele>
        <time>2021-06-03T16:14:56Z</time>
      </trkpt>
      <trkpt lat="45.33067" lon="4.38397">
        <ele>891</ele>
        <time>2021-06-03T16:15:56Z</time>
      </trkpt>
      <trkpt lat="45.33008" lon="4.38447">
        <ele>890</ele>
        <time>2021-06-03T16:16:51Z</time>
      </trkpt>
      <trkpt lat="45.32954" lon="4.3845">
        <ele>886</ele>
        <time>2021-06-03T16:17:34Z</time>
      </trkpt>
      <trkpt lat="45.32926" lon="4.38458">
        <ele>882</ele>
        <time>2021-06-03T16:17:57Z</time>
      </trkpt>
      <trkpt lat="45.32897" lon="4.38495">
        <ele>873</ele>
        <time>2021-06-03T16:18:28Z</time>
      </trkpt>
      <trkpt lat="45.32886" lon="4.38541">
        <ele>869</ele>
        <time>2021-06-03T16:18:55Z</time>
      </trkpt>
      <trkpt lat="45.32849" lon="4.38593">
        <ele>866</ele>
        <time>2021-06-03T16:19:37Z</time>
      </trkpt>
      <trkpt lat="45.32856" lon="4.38614">
        <ele>867</ele>
        <time>2021-06-03T16:19:50Z</time>
      </trkpt>
      <trkpt lat="45.32864" lon="4.38628">
        <ele>867</ele>
        <time>2021-06-03T16:20:00Z</time>
      </trkpt>
      <trkpt lat="45.32843" lon="4.38658">
        <ele>867</ele>
        <time>2021-06-03T16:20:24Z</time>
      </trkpt>
      <trkpt lat="45.32823" lon="4.38651">
        <ele>866</ele>
        <time>2021-06-03T16:20:40Z</time>
      </trkpt>
      <trkpt lat="45.32787" lon="4.38659">
        <ele>866</ele>
        <time>2021-06-03T16:21:10Z</time>
      </trkpt>
      <trkpt lat="45.32741" lon="4.38672">
        <ele>868</ele>
        <time>2021-06-03T16:21:47Z</time>
      </trkpt>
      <trkpt lat="45.3271" lon="4.38674">
        <ele>873</ele>
        <time>2021-06-03T16:22:12Z</time>
      </trkpt>
      <trkpt lat="45.32656" lon="4.38676">
        <ele>883</ele>
        <time>2021-06-03T16:22:55Z</time>
      </trkpt>
      <trkpt lat="45.32616" lon="4.3867">
        <ele>890</ele>
        <time>2021-06-03T16:23:27Z</time>
      </trkpt>
      <trkpt lat="45.32606" lon="4.38643">
        <ele>890</ele>
        <time>2021-06-03T16:23:45Z</time>
      </trkpt>
      <trkpt lat="45.32595" lon="4.38585">
        <ele>891</ele>
        <time>2021-06-03T16:24:18Z</time>
      </trkpt>
      <trkpt lat="45.32576" lon="4.38529">
        <ele>888</ele>
        <time>2021-06-03T16:24:53Z</time>
      </trkpt>
      <trkpt lat="45.32543" lon="4.38499">
        <ele>892</ele>
        <time>2021-06-03T16:25:25Z</time>
      </trkpt>
      <trkpt lat="45.32511" lon="4.38462">
        <ele>894</ele>
        <time>2021-06-03T16:25:58Z</time>
      </trkpt>
      <trkpt lat="45.3249" lon="4.38409">
        <ele>890</ele>
        <time>2021-06-03T16:26:32Z</time>
      </trkpt>
      <trkpt lat="45.32464" lon="4.3838">
        <ele>887</ele>
        <time>2021-06-03T16:26:59Z</time>
      </trkpt>
      <trkpt lat="45.32461" lon="4.38333">
        <ele>876</ele>
        <time>2021-06-03T16:27:25Z</time>
      </trkpt>
      <trkpt lat="45.32433" lon="4.38303">
        <ele>873</ele>
        <time>2021-06-03T16:27:53Z</time>
      </trkpt>
      <trkpt lat="45.32402" lon="4.383">
        <ele>874</ele>
        <time>2021-06-03T16:28:18Z</time>
      </trkpt>
      <trkpt lat="45.32365" lon="4.38326">
        <ele>877</ele>
        <time>2021-06-03T16:28:51Z</time>
      </trkpt>
      <trkpt lat="45.32327" lon="4.38354">
        <ele>881</ele>
        <time>2021-06-03T16:29:25Z</time>
      </trkpt>
      <trkpt lat="45.32272" lon="4.38377">
        <ele>880</ele>
        <time>2021-06-03T16:30:11Z</time>
      </trkpt>
      <trkpt lat="45.32212" lon="4.38395">
        <ele>873</ele>
        <time>2021-06-03T16:31:00Z</time>
      </trkpt>
      <trkpt lat="45.32157" lon="4.38392">
        <ele>863</ele>
        <time>2021-06-03T16:31:44Z</time>
      </trkpt>
      <trkpt lat="45.32112" lon="4.38404">
        <ele>859</ele>
        <time>2021-06-03T16:32:21Z</time>
      </trkpt>
      <trkpt lat="45.32109" lon="4.38441">
        <ele>866</ele>
        <time>2021-06-03T16:32:42Z</time>
      </trkpt>
      <trkpt lat="45.32076" lon="4.3848">
        <ele>872</ele>
        <time>2021-06-03T16:33:16Z</time>
      </trkpt>
      <trkpt lat="45.32047" lon="4.38512">
        <ele>877</ele>
        <time>2021-06-03T16:33:46Z</time>
      </trkpt>
      <trkpt lat="45.32008" lon="4.38547">
        <ele>884</ele>
        <time>2021-06-03T16:34:23Z</time>
      </trkpt>
      <trkpt lat="45.31946" lon="4.38574">
        <ele>897</ele>
        <time>2021-06-03T16:35:15Z</time>
      </trkpt>
      <trkpt lat="45.31884" lon="4.38573">
        <ele>902</ele>
        <time>2021-06-03T16:36:04Z</time>
      </trkpt>
      <trkpt lat="45.31831" lon="4.3855">
        <ele>899</ele>
        <time>2021-06-03T16:36:49Z</time>
      </trkpt>
      <trkpt lat="45.31775" lon="4.38559">
        <ele>896</ele>
        <time>2021-06-03T16:37:34Z</time>
      </trkpt>
      <trkpt lat="45.31758" lon="4.38532">
        <ele>889</ele>
        <time>2021-06-03T16:37:54Z</time>
      </trkpt>
      <trkpt lat="45.31716" lon="4.38499">
        <ele>884</ele>
        <time>2021-06-03T16:38:33Z</time>
      </trkpt>
      <trkpt lat="45.31701" lon="4.38482">
        <ele>884</ele>
        <time>2021-06-03T16:38:48Z</time>
      </trkpt>
      <trkpt lat="45.31707" lon="4.38457">
        <ele>882</ele>
        <time>2021-06-03T16:39:03Z</time>
      </trkpt>
      <trkpt lat="45.31718" lon="4.38422">
        <ele>879</ele>
        <time>2021-06-03T16:39:24Z</time>
      </trkpt>
      <trkpt lat="45.31727" lon="4.38384">
        <ele>871</ele>
        <time>2021-06-03T16:39:47Z</time>
      </trkpt>
      <trkpt lat="45.31718" lon="4.38356">
        <ele>868</ele>
        <time>2021-06-03T16:40:04Z</time>
      </trkpt>
      <trkpt lat="45.3167" lon="4.38327">
        <ele>871</ele>
        <time>2021-06-03T16:40:46Z</time>
      </trkpt>
      <trkpt lat="45.31599" lon="4.38311">
        <ele>875</ele>
        <time>2021-06-03T16:41:44Z</time>
      </trkpt>
      <trkpt lat="45.31528" lon="4.38301">
        <ele>879</ele>
        <time>2021-06-03T16:42:41Z</time>
      </trkpt>
      <trkpt lat="45.31449" lon="4.38287">
        <ele>884</ele>
        <time>2021-06-03T16:43:44Z</time>
      </trkpt>
      <trkpt lat="45.31412" lon="4.38247">
        <ele>880</ele>
        <time>2021-06-03T16:44:22Z</time>
      </trkpt>
      <trkpt lat="45.31351" lon="4.38196">
        <ele>873</ele>
        <time>2021-06-03T16:45:18Z</time>
      </trkpt>
      <trkpt lat="45.3126" lon="4.38176">
        <ele>871</ele>
        <time>2021-06-03T16:46:32Z</time>
      </trkpt>
      <trkpt lat="45.31221" lon="4.38135">
        <ele>864</ele>
        <time>2021-06-03T16:47:11Z</time>
      </trkpt>
      <trkpt lat="45.31178" lon="4.38074">
        <ele>861</ele>
        <time>2021-06-03T16:48:00Z</time>
      </trkpt>
      <trkpt lat="45.31133" lon="4.3801">
        <ele>857</ele>
        <time>2021-06-03T16:48:51Z</time>
      </trkpt>
      <trkpt lat="45.31098" lon="4.37951">
        <ele>849</ele>
        <time>2021-06-03T16:49:34Z</time>
      </trkpt>
      <trkpt lat="45.31096" lon="4.37926">
        <ele>845</ele>
        <time>2021-06-03T16:49:48Z</time>
      </trkpt>
      <trkpt lat="45.31048" lon="4.37888">
        <ele>847</ele>
        <time>2021-06-03T16:50:32Z</time>
      </trkpt>
      <trkpt lat="45.30999" lon="4.37835">
        <ele>845</ele>
        <time>2021-06-03T16:51:21Z</time>
      </trkpt>
      <trkpt lat="45.30967" lon="4.37805">
        <ele>843</ele>
        <time>2021-06-03T16:51:52Z</time>
      </trkpt>
      <trkpt lat="45.3092" lon="4.37777">
        <ele>844</ele>
        <time>2021-06-03T16:52:33Z</time>
      </trkpt>
      <trkpt lat="45.3095" lon="4.37862">
        <ele>856</ele>
        <time>2021-06-03T16:53:26Z</time>
      </trkpt>
      <trkpt lat="45.30983" lon="4.37964">
        <ele>875</ele>
        <time>2021-06-03T16:54:30Z</time>
      </trkpt>
      <trkpt lat="45.30988" lon="4.38047">
        <ele>888</ele>
        <time>2021-06-03T16:55:17Z</time>
      </trkpt>
      <trkpt lat="45.3099" lon="4.38143">
        <ele>896</ele>
        <time>2021-06-03T16:56:11Z</time>
      </trkpt>
      <trkpt lat="45.31026" lon="4.38226">
        <ele>896</ele>
        <time>2021-06-03T16:57:06Z</time>
      </trkpt>
      <trkpt lat="45.31048" lon="4.38321">
        <ele>902</ele>
        <time>2021-06-03T16:58:02Z</time>
      </trkpt>
      <trkpt lat="45.31053" lon="4.38425">
        <ele>906</ele>
        <time>2021-06-03T16:59:01Z</time>
      </trkpt>
      <trkpt lat="45.31089" lon="4.38489">
        <ele>907</ele>
        <time>2021-06-03T16:59:47Z</time>
      </trkpt>
      <trkpt lat="45.31121" lon="4.38555">
        <ele>909</ele>
        <time>2021-06-03T17:00:32Z</time>
      </trkpt>
      <trkpt lat="45.31161" lon="4.38626">
        <ele>914</ele>
        <time>2021-06-03T17:01:23Z</time>
      </trkpt>
      <trkpt lat="45.31168" lon="4.38712">
        <ele>914</ele>
        <time>2021-06-03T17:02:12Z</time>
      </trkpt>
      <trkpt lat="45.31162" lon="4.38777">
        <ele>912</ele>
        <time>2021-06-03T17:02:49Z</time>
      </trkpt>
      <trkpt lat="45.31168" lon="4.38838">
        <ele>914</ele>
        <time>2021-06-03T17:03:23Z</time>
      </trkpt>
      <trkpt lat="45.31179" lon="4.38915">
        <ele>918</ele>
        <time>2021-06-03T17:04:08Z</time>
      </trkpt>
      <trkpt lat="45.31168" lon="4.3898">
        <ele>921</ele>
        <time>2021-06-03T17:04:45Z</time>
      </trkpt>
      <trkpt lat="45.31144" lon="4.39045">
        <ele>926</ele>
        <time>2021-06-03T17:05:27Z</time>
      </trkpt>
      <trkpt lat="45.3113" lon="4.39119">
        <ele>932</ele>
        <time>2021-06-03T17:06:10Z</time>
      </trkpt>
      <trkpt lat="45.31122" lon="4.39188">
        <ele>937</ele>
        <time>2021-06-03T17:06:49Z</time>
      </trkpt>
      <trkpt lat="45.31103" lon="4.39234">
        <ele>941</ele>
        <time>2021-06-03T17:07:19Z</time>
      </trkpt>
      <trkpt lat="45.31098" lon="4.3928">
        <ele>941</ele>
        <time>2021-06-03T17:07:45Z</time>
      </trkpt>
      <trkpt lat="45.31103" lon="4.3934">
        <ele>939</ele>
        <time>2021-06-03T17:08:19Z</time>
      </trkpt>
      <trkpt lat="45.31087" lon="4.39374">
        <ele>932</ele>
        <time>2021-06-03T17:08:43Z</time>
      </trkpt>
      <trkpt lat="45.3107" lon="4.39425">
        <ele>926</ele>
        <time>2021-06-03T17:09:14Z</time>
      </trkpt>
      <trkpt lat="45.31062" lon="4.39486">
        <ele>920</ele>
        <time>2021-06-03T17:09:49Z</time>
      </trkpt>
      <trkpt lat="45.31072" lon="4.3956">
        <ele>914</ele>
        <time>2021-06-03T17:10:32Z</time>
      </trkpt>
      <trkpt lat="45.31066" lon="4.3961">
        <ele>910</ele>
        <time>2021-06-03T17:11:00Z</time>
      </trkpt>
      <trkpt lat="45.31046" lon="4.39647">
        <ele>907</ele>
        <time>2021-06-03T17:11:27Z</time>
      </trkpt>
      <trkpt lat="45.31006" lon="4.39653">
        <ele>908</ele>
        <time>2021-06-03T17:11:59Z</time>
      </trkpt>
      <trkpt lat="45.30967" lon="4.39676">
        <ele>905</ele>
        <time>2021-06-03T17:12:33Z</time>
      </trkpt>
      <trkpt lat="45.30934" lon="4.39719">
        <ele>898</ele>
        <time>2021-06-03T17:13:08Z</time>
      </trkpt>
      <trkpt lat="45.3089" lon="4.3974">
        <ele>894</ele>
        <time>2021-06-03T17:13:46Z</time>
      </trkpt>
      <trkpt lat="45.30839" lon="4.39734">
        <ele>893</ele>
        <time>2021-06-03T17:14:27Z</time>
      </trkpt>
      <trkpt lat="45.30791" lon="4.39726">
        <ele>894</ele>
        <time>2021-06-03T17:15:05Z</time>
      </trkpt>
      <trkpt lat="45.30738" lon="4.39699">
        <ele>893</ele>
        <time>2021-06-03T17:15:50Z</time>
      </trkpt>
      <trkpt lat="45.30691" lon="4.39684">
        <ele>896</ele>
        <time>2021-06-03T17:16:29Z</time>
      </trkpt>
      <trkpt lat="45.30658" lon="4.39705">
        <ele>903</ele>
        <time>2021-06-03T17:16:58Z</time>
      </trkpt>
      <trkpt lat="45.30655" lon="4.39722">
        <ele>906</ele>
        <time>2021-06-03T17:17:08Z</time>
      </trkpt>
      <trkpt lat="45.30609" lon="4.39739">
        <ele>913</ele>
        <time>2021-06-03T17:17:46Z</time>
      </trkpt>
      <trkpt lat="45.30556" lon="4.39776">
        <ele>922</ele>
        <time>2021-06-03T17:18:33Z</time>
      </trkpt>
      <trkpt lat="45.30504" lon="4.39824">
        <ele>927</ele>
        <time>2021-06-03T17:19:23Z</time>
      </trkpt>
      <trkpt lat="45.30497" lon="4.39838">
        <ele>928</ele>
        <time>2021-06-03T17:19:32Z</time>
      </trkpt>
      <trkpt lat="45.30536" lon="4.39836">
        <ele>928</ele>
        <time>2021-06-03T17:20:04Z</time>
      </trkpt>
      <trkpt lat="45.30589" lon="4.3985">
        <ele>928</ele>
        <time>2021-06-03T17:20:47Z</time>
      </trkpt>
      <trkpt lat="45.30639" lon="4.39895">
        <ele>928</ele>
        <time>2021-06-03T17:21:34Z</time>
      </trkpt>
      <trkpt lat="45.30676" lon="4.39953">
        <ele>929</ele>
        <time>2021-06-03T17:22:18Z</time>
      </trkpt>
      <trkpt lat="45.30714" lon="4.40007">
        <ele>933</ele>
        <time>2021-06-03T17:23:01Z</time>
      </trkpt>
      <trkpt lat="45.30739" lon="4.40071">
        <ele>943</ele>
        <time>2021-06-03T17:23:42Z</time>
      </trkpt>
      <trkpt lat="45.30761" lon="4.40128">
        <ele>953</ele>
        <time>2021-06-03T17:24:19Z</time>
      </trkpt>
      <trkpt lat="45.30798" lon="4.40149">
        <ele>963</ele>
        <time>2021-06-03T17:24:51Z</time>
      </trkpt>
      <trkpt lat="45.30819" lon="4.40169">
        <ele>969</ele>
        <time>2021-06-03T17:25:11Z</time>
      </trkpt>
      <trkpt lat="45.30819" lon="4.40223">
        <ele>975</ele>
        <time>2021-06-03T17:25:42Z</time>
      </trkpt>
      <trkpt lat="45.30819" lon="4.40284">
        <ele>980</ele>
        <time>2021-06-03T17:26:16Z</time>
      </trkpt>
      <trkpt lat="45.30838" lon="4.40307">
        <ele>984</ele>
        <time>2021-06-03T17:26:36Z</time>
      </trkpt>
      <trkpt lat="45.30818" lon="4.40344">
        <ele>983</ele>
        <time>2021-06-03T17:27:02Z</time>
      </trkpt>
      <trkpt lat="45.30767" lon="4.40382">
        <ele>977</ele>
        <time>2021-06-03T17:27:48Z</time>
      </trkpt>
      <trkpt lat="45.30746" lon="4.40424">
        <ele>974</ele>
        <time>2021-06-03T17:28:17Z</time>
      </trkpt>
      <trkpt lat="45.30738" lon="4.40457">
        <ele>971</ele>
        <time>2021-06-03T17:28:37Z</time>
      </trkpt>
      <trkpt lat="45.30703" lon="4.40511">
        <ele>963</ele>
        <time>2021-06-03T17:29:18Z</time>
      </trkpt>
      <trkpt lat="45.30745" lon="4.40533">
        <ele>969</ele>
        <time>2021-06-03T17:29:54Z</time>
      </trkpt>
      <trkpt lat="45.30768" lon="4.40564">
        <ele>972</ele>
        <time>2021-06-03T17:30:20Z</time>
      </trkpt>
      <trkpt lat="45.30781" lon="4.406">
        <ele>974</ele>
        <time>2021-06-03T17:30:42Z</time>
      </trkpt>
      <trkpt lat="45.3076" lon="4.40655">
        <ele>975</ele>
        <time>2021-06-03T17:31:18Z</time>
      </trkpt>
      <trkpt lat="45.30746" lon="4.4073">
        <ele>979</ele>
        <time>2021-06-03T17:32:01Z</time>
      </trkpt>
      <trkpt lat="45.30773" lon="4.40809">
        <ele>983</ele>
        <time>2021-06-03T17:32:51Z</time>
      </trkpt>
      <trkpt lat="45.30816" lon="4.40912">
        <ele>982</ele>
        <time>2021-06-03T17:33:58Z</time>
      </trkpt>
      <trkpt lat="45.30843" lon="4.40979">
        <ele>983</ele>
        <time>2021-06-03T17:34:42Z</time>
      </trkpt>
      <trkpt lat="45.30871" lon="4.4104">
        <ele>985</ele>
        <time>2021-06-03T17:35:23Z</time>
      </trkpt>
      <trkpt lat="45.30865" lon="4.41104">
        <ele>986</ele>
        <time>2021-06-03T17:35:59Z</time>
      </trkpt>
      <trkpt lat="45.30857" lon="4.41156">
        <ele>985</ele>
        <time>2021-06-03T17:36:29Z</time>
      </trkpt>
      <trkpt lat="45.30908" lon="4.41204">
        <ele>991</ele>
        <time>2021-06-03T17:37:18Z</time>
      </trkpt>
      <trkpt lat="45.30978" lon="4.41255">
        <ele>998</ele>
        <time>2021-06-03T17:38:21Z</time>
      </trkpt>
      <trkpt lat="45.31026" lon="4.4127">
        <ele>1001</ele>
        <time>2021-06-03T17:39:00Z</time>
      </trkpt>
      <trkpt lat="45.31083" lon="4.41238">
        <ele>1006</ele>
        <time>2021-06-03T17:39:49Z</time>
      </trkpt>
      <trkpt lat="45.31142" lon="4.41243">
        <ele>1009</ele>
        <time>2021-06-03T17:40:37Z</time>
      </trkpt>
      <trkpt lat="45.3119" lon="4.41265">
        <ele>1011</ele>
        <time>2021-06-03T17:41:17Z</time>
      </trkpt>
      <trkpt lat="45.31244" lon="4.4129">
        <ele>1014</ele>
        <time>2021-06-03T17:42:03Z</time>
      </trkpt>
      <trkpt lat="45.31295" lon="4.41298">
        <ele>1016</ele>
        <time>2021-06-03T17:42:44Z</time>
      </trkpt>
      <trkpt lat="45.31332" lon="4.41329">
        <ele>1015</ele>
        <time>2021-06-03T17:43:18Z</time>
      </trkpt>
      <trkpt lat="45.3143" lon="4.4137">
        <ele>1016</ele>
        <time>2021-06-03T17:44:40Z</time>
      </trkpt>
      <trkpt lat="45.31494" lon="4.41408">
        <ele>1014</ele>
        <time>2021-06-03T17:45:35Z</time>
      </trkpt>
      <trkpt lat="45.31552" lon="4.41431">
        <ele>1012</ele>
        <time>2021-06-03T17:46:24Z</time>
      </trkpt>
      <trkpt lat="45.31616" lon="4.41461">
        <ele>1013</ele>
        <time>2021-06-03T17:47:18Z</time>
      </trkpt>
      <trkpt lat="45.3168" lon="4.41459">
        <ele>1013</ele>
        <time>2021-06-03T17:48:09Z</time>
      </trkpt>
      <trkpt lat="45.31761" lon="4.41455">
        <ele>1013</ele>
        <time>2021-06-03T17:49:14Z</time>
      </trkpt>
      <trkpt lat="45.31821" lon="4.41446">
        <ele>1011</ele>
        <time>2021-06-03T17:50:02Z</time>
      </trkpt>
      <trkpt lat="45.3188" lon="4.41428">
        <ele>1006</ele>
        <time>2021-06-03T17:50:50Z</time>
      </trkpt>
      <trkpt lat="45.31934" lon="4.41433">
        <ele>1001</ele>
        <time>2021-06-03T17:51:34Z</time>
      </trkpt>
      <trkpt lat="45.31975" lon="4.41447">
        <ele>999</ele>
        <time>2021-06-03T17:52:07Z</time>
      </trkpt>
      <trkpt lat="45.31994" lon="4.41498">
        <ele>996</ele>
        <time>2021-06-03T17:52:40Z</time>
      </trkpt>
      <trkpt lat="45.32048" lon="4.41566">
        <ele>1005</ele>
        <time>2021-06-03T17:53:38Z</time>
      </trkpt>
      <trkpt lat="45.32091" lon="4.41654">
        <ele>1009</ele>
        <time>2021-06-03T17:54:38Z</time>
      </trkpt>
      <trkpt lat="45.32145" lon="4.41704">
        <ele>1006</ele>
        <time>2021-06-03T17:55:30Z</time>
      </trkpt>
      <trkpt lat="45.32173" lon="4.41746">
        <ele>1003</ele>
        <time>2021-06-03T17:56:02Z</time>
      </trkpt>
      <trkpt lat="45.32198" lon="4.41807">
        <ele>993</ele>
        <time>2021-06-03T17:56:42Z</time>
      </trkpt>
      <trkpt lat="45.32241" lon="4.41854">
        <ele>991</ele>
        <time>2021-06-03T17:57:25Z</time>
      </trkpt>
      <trkpt lat="45.32285" lon="4.41893">
        <ele>985</ele>
        <time>2021-06-03T17:58:07Z</time>
      </trkpt>
      <trkpt lat="45.32313" lon="4.41946">
        <ele>979</ele>
        <time>2021-06-03T17:58:44Z</time>
      </trkpt>
      <trkpt lat="45.32345" lon="4.42006">
        <ele>970</ele>
        <time>2021-06-03T17:59:27Z</time>
      </trkpt>
      <trkpt lat="45.32357" lon="4.42065">
        <ele>955</ele>
        <time>2021-06-03T18:00:01Z</time>
      </trkpt>
      <trkpt lat="45.32396" lon="4.42106">
        <ele>943</ele>
        <time>2021-06-03T18:00:40Z</time>
      </trkpt>
      <trkpt lat="45.32451" lon="4.42069">
        <ele>943</ele>
        <time>2021-06-03T18:01:29Z</time>
      </trkpt>
      <trkpt lat="45.32517" lon="4.42037">
        <ele>936</ele>
        <time>2021-06-03T18:02:24Z</time>
      </trkpt>
      <trkpt lat="45.32542" lon="4.42018">
        <ele>934</ele>
        <time>2021-06-03T18:02:47Z</time>
      </trkpt>
      <trkpt lat="45.32546" lon="4.41972">
        <ele>940</ele>
        <time>2021-06-03T18:03:13Z</time>
      </trkpt>
      <trkpt lat="45.3259" lon="4.41922">
        <ele>943</ele>
        <time>2021-06-03T18:03:58Z</time>
      </trkpt>
      <trkpt lat="45.32649" lon="4.41899">
        <ele>934</ele>
        <time>2021-06-03T18:04:47Z</time>
      </trkpt>
      <trkpt lat="45.32671" lon="4.41863">
        <ele>935</ele>
        <time>2021-06-03T18:05:14Z</time>
      </trkpt>
      <trkpt lat="45.32661" lon="4.41822">
        <ele>944</ele>
        <time>2021-06-03T18:05:39Z</time>
      </trkpt>
      <trkpt lat="45.32652" lon="4.41783">
        <ele>950</ele>
        <time>2021-06-03T18:06:02Z</time>
      </trkpt>
      <trkpt lat="45.32682" lon="4.41733">
        <ele>947</ele>
        <time>2021-06-03T18:06:39Z</time>
      </trkpt>
      <trkpt lat="45.32684" lon="4.41662">
        <ele>949</ele>
        <time>2021-06-03T18:07:19Z</time>
      </trkpt>
      <trkpt lat="45.32712" lon="4.41615">
        <ele>946</ele>
        <time>2021-06-03T18:07:53Z</time>
      </trkpt>
      <trkpt lat="45.32745" lon="4.41539">
        <ele>950</ele>
        <time>2021-06-03T18:08:44Z</time>
      </trkpt>
      <trkpt lat="45.32782" lon="4.41431">
        <ele>947</ele>
        <time>2021-06-03T18:09:51Z</time>
      </trkpt>
      <trkpt lat="45.32801" lon="4.41359">
        <ele>946</ele>
        <time>2021-06-03T18:10:35Z</time>
      </trkpt>
      <trkpt lat="45.32823" lon="4.4131">
        <ele>946</ele>
        <time>2021-06-03T18:11:07Z</time>
      </trkpt>
      <trkpt lat="45.32857" lon="4.41273">
        <ele>945</ele>
        <time>2021-06-03T18:11:42Z</time>
      </trkpt>
      <trkpt lat="45.32872" lon="4.41241">
        <ele>947</ele>
        <time>2021-06-03T18:12:03Z</time>
      </trkpt>
      <trkpt lat="45.3292" lon="4.41208">
        <ele>942</ele>
        <time>2021-06-03T18:12:46Z</time>
      </trkpt>
      <trkpt lat="45.32967" lon="4.41162">
        <ele>940</ele>
        <time>2021-06-03T18:13:32Z</time>
      </trkpt>
      <trkpt lat="45.32988" lon="4.41117">
        <ele>938</ele>
        <time>2021-06-03T18:14:02Z</time>
      </trkpt>
      <trkpt lat="45.32967" lon="4.41049">
        <ele>950</ele>
        <time>2021-06-03T18:14:44Z</time>
      </trkpt>
      <trkpt lat="45.32997" lon="4.41021">
        <ele>946</ele>
        <time>2021-06-03T18:15:13Z</time>
      </trkpt>
      <trkpt lat="45.33037" lon="4.40989">
        <ele>940</ele>
        <time>2021-06-03T18:15:49Z</time>
      </trkpt>
      <trkpt lat="45.33054" lon="4.4094">
        <ele>942</ele>
        <time>2021-06-03T18:16:20Z</time>
      </trkpt>
      <trkpt lat="45.33054" lon="4.40857">
        <ele>948</ele>
        <time>2021-06-03T18:17:07Z</time>
      </trkpt>
      <trkpt lat="45.33059" lon="4.40758">
        <ele>949</ele>
        <time>2021-06-03T18:18:03Z</time>
      </trkpt>
      <trkpt lat="45.33067" lon="4.40692">
        <ele>949</ele>
        <time>2021-06-03T18:18:40Z</time>
      </trkpt>
      <trkpt lat="45.33086" lon="4.4065">
        <ele>942</ele>
        <time>2021-06-03T18:19:08Z</time>
      </trkpt>
      <trkpt lat="45.33113" lon="4.40593">
        <ele>935</ele>
        <time>2021-06-03T18:19:47Z</time>
      </trkpt>
      <trkpt lat="45.33116" lon="4.40512">
        <ele>930</ele>
        <time>2021-06-03T18:20:33Z</time>
      </trkpt>
      <trkpt lat="45.33111" lon="4.40456">
        <ele>927</ele>
        <time>2021-06-03T18:21:05Z</time>
      </trkpt>
      <trkpt lat="45.33111" lon="4.4043">
        <ele>925</ele>
        <time>2021-06-03T18:21:19Z</time>
      </trkpt>
      <trkpt lat="45.33124" lon="4.40409">
        <ele>926</ele>
        <time>2021-06-03T18:21:35Z</time>
      </trkpt>
      <trkpt lat="45.33081" lon="4.40317">
        <ele>920</ele>
        <time>2021-06-03T18:22:37Z</time>
      </trkpt>
      <trkpt lat="45.33048" lon="4.40257">
        <ele>921</ele>
        <time>2021-06-03T18:23:20Z</time>
      </trkpt>
      <trkpt lat="45.3305" lon="4.40198">
        <ele>921</ele>
        <time>2021-06-03T18:23:53Z</time>
      </trkpt>
      <trkpt lat="45.33046" lon="4.40119">
        <ele>922</ele>
        <time>2021-06-03T18:24:38Z</time>
      </trkpt>
      <trkpt lat="45.33043" lon="4.40012">
        <ele>926</ele>
        <time>2021-06-03T18:25:38Z</time>
      </trkpt>
      <trkpt lat="45.33055" lon="4.39947">
        <ele>927</ele>
        <time>2021-06-03T18:26:16Z</time>
      </trkpt>
      <trkpt lat="45.3309" lon="4.3991">
        <ele>929</ele>
        <time>2021-06-03T18:26:51Z</time>
      </trkpt>
      <trkpt lat="45.33147" lon="4.39854">
        <ele>926</ele>
        <time>2021-06-03T18:27:46Z</time>
      </trkpt>
      <trkpt lat="45.33199" lon="4.39812">
        <ele>923</ele>
        <time>2021-06-03T18:28:34Z</time>
      </trkpt>
      <trkpt lat="45.3326" lon="4.39786">
        <ele>922</ele>
        <time>2021-06-03T18:29:25Z</time>
      </trkpt>
      <trkpt lat="45.33323" lon="4.39793">
        <ele>925</ele>
        <time>2021-06-03T18:30:16Z</time>
      </trkpt>
      <trkpt lat="45.33355" lon="4.39787">
        <ele>925</ele>
        <time>2021-06-03T18:30:42Z</time>
      </trkpt>
      <trkpt lat="45.33391" lon="4.39731">
        <ele>921</ele>
        <time>2021-06-03T18:31:24Z</time>
      </trkpt>
      <trkpt lat="45.3344" lon="4.39694">
        <ele>923</ele>
        <time>2021-06-03T18:32:09Z</time>
      </trkpt>
      <trkpt lat="45.33451" lon="4.39775">
        <ele>931</ele>
        <time>2021-06-03T18:32:55Z</time>
      </trkpt>
      <trkpt lat="45.33462" lon="4.39857">
        <ele>938</ele>
        <time>2021-06-03T18:33:42Z</time>
      </trkpt>
      <trkpt lat="45.3348" lon="4.40002">
        <ele>959</ele>
        <time>2021-06-03T18:35:05Z</time>
      </trkpt>
      <trkpt lat="45.33486" lon="4.40039">
        <ele>965</ele>
        <time>2021-06-03T18:35:26Z</time>
      </trkpt>
      <trkpt lat="45.33561" lon="4.40096">
        <ele>969</ele>
        <time>2021-06-03T18:36:35Z</time>
      </trkpt>
      <trkpt lat="45.33578" lon="4.40121">
        <ele>969</ele>
        <time>2021-06-03T18:36:54Z</time>
      </trkpt>
      <trkpt lat="45.3364" lon="4.40083">
        <ele>971</ele>
        <time>2021-06-03T18:37:48Z</time>
      </trkpt>
      <trkpt lat="45.33745" lon="4.40019">
        <ele>971</ele>
        <time>2021-06-03T18:39:20Z</time>
      </trkpt>
      <trkpt lat="45.33816" lon="4.40028">
        <ele>975</ele>
        <time>2021-06-03T18:40:17Z</time>
      </trkpt>
      <trkpt lat="45.33881" lon="4.4007">
        <ele>982</ele>
        <time>2021-06-03T18:41:14Z</time>
      </trkpt>
      <trkpt lat="45.3393" lon="4.40157">
        <ele>993</ele>
        <time>2021-06-03T18:42:17Z</time>
      </trkpt>
      <trkpt lat="45.33961" lon="4.40183">
        <ele>997</ele>
        <time>2021-06-03T18:42:45Z</time>
      </trkpt>
      <trkpt lat="45.34013" lon="4.40151">
        <ele>998</ele>
        <time>2021-06-03T18:43:31Z</time>
      </trkpt>
      <trkpt lat="45.3405" lon="4.40142">
        <ele>999</ele>
        <time>2021-06-03T18:44:01Z</time>
      </trkpt>
      <trkpt lat="45.34113" lon="4.40183">
        <ele>1002</ele>
        <time>2021-06-03T18:44:56Z</time>
      </trkpt>
      <trkpt lat="45.34245" lon="4.40286">
        <ele>1008</ele>
        <time>2021-06-03T18:46:57Z</time>
      </trkpt>
      <trkpt lat="45.34326" lon="4.40334">
        <ele>1017</ele>
        <time>2021-06-03T18:48:07Z</time>
      </trkpt>
      <trkpt lat="45.34332" lon="4.4036">
        <ele>1018</ele>
        <time>2021-06-03T18:48:23Z</time>
      </trkpt>
      <trkpt lat="45.34438" lon="4.40397">
        <ele>1018</ele>
        <time>2021-06-03T18:49:50Z</time>
      </trkpt>
      <trkpt lat="45.34458" lon="4.40268">
        <ele>1023</ele>
        <time>2021-06-03T18:51:04Z</time>
      </trkpt>
      <trkpt lat="45.3448" lon="4.40174">
        <ele>1024</ele>
        <time>2021-06-03T18:52:00Z</time>
      </trkpt>
      <trkpt lat="45.34498" lon="4.40098">
        <ele>1023</ele>
        <time>2021-06-03T18:52:45Z</time>
      </trkpt>
      <trkpt lat="45.34579" lon="4.39955">
        <ele>1015</ele>
        <time>2021-06-03T18:54:28Z</time>
      </trkpt>
      <trkpt lat="45.34677" lon="4.39778">
        <ele>1006</ele>
        <time>2021-06-03T18:56:35Z</time>
      </trkpt>
      <trkpt lat="45.3469" lon="4.3974">
        <ele>1005</ele>
        <time>2021-06-03T18:56:59Z</time>
      </trkpt>
      <trkpt lat="45.34712" lon="4.39703">
        <ele>1003</ele>
        <time>2021-06-03T18:57:26Z</time>
      </trkpt>
      <trkpt lat="45.3478" lon="4.39618">
        <ele>996</ele>
        <time>2021-06-03T18:58:39Z</time>
      </trkpt>
      <trkpt lat="45.34819" lon="4.39545">
        <ele>992</ele>
        <time>2021-06-03T18:59:30Z</time>
      </trkpt>
      <trkpt lat="45.34824" lon="4.39508">
        <ele>990</ele>
        <time>2021-06-03T18:59:52Z</time>
      </trkpt>
      <trkpt lat="45.34871" lon="4.3947">
        <ele>986</ele>
        <time>2021-06-03T19:00:35Z</time>
      </trkpt>
      <trkpt lat="45.34926" lon="4.39406">
        <ele>982</ele>
        <time>2021-06-03T19:01:32Z</time>
      </trkpt>
      <trkpt lat="45.34972" lon="4.39336">
        <ele>977</ele>
        <time>2021-06-03T19:02:26Z</time>
      </trkpt>
      <trkpt lat="45.35" lon="4.39353">
        <ele>975</ele>
        <time>2021-06-03T19:02:50Z</time>
      </trkpt>
      <trkpt lat="45.34988" lon="4.39401">
        <ele>974</ele>
        <time>2021-06-03T19:03:19Z</time>
      </trkpt>
      <trkpt lat="45.34959" lon="4.39486">
        <ele>976</ele>
        <time>2021-06-03T19:04:12Z</time>
      </trkpt>
      <trkpt lat="45.34974" lon="4.39521">
        <ele>974</ele>
        <time>2021-06-03T19:04:35Z</time>
      </trkpt>
      <trkpt lat="45.3498" lon="4.39556">
        <ele>975</ele>
        <time>2021-06-03T19:04:55Z</time>
      </trkpt>
      <trkpt lat="45.35048" lon="4.39526">
        <ele>970</ele>
        <time>2021-06-03T19:05:52Z</time>
      </trkpt>
      <trkpt lat="45.35128" lon="4.39474">
        <ele>964</ele>
        <time>2021-06-03T19:07:03Z</time>
      </trkpt>
      <trkpt lat="45.3518" lon="4.39445">
        <ele>961</ele>
        <time>2021-06-03T19:07:47Z</time>
      </trkpt>
      <trkpt lat="45.35216" lon="4.39391">
        <ele>958</ele>
        <time>2021-06-03T19:08:29Z</time>
      </trkpt>
      <trkpt lat="45.35273" lon="4.39365">
        <ele>963</ele>
        <time>2021-06-03T19:09:17Z</time>
      </trkpt>
      <trkpt lat="45.35351" lon="4.39372">
        <ele>969</ele>
        <time>2021-06-03T19:10:20Z</time>
      </trkpt>
      <trkpt lat="45.35411" lon="4.39369">
        <ele>967</ele>
        <time>2021-06-03T19:11:08Z</time>
      </trkpt>
      <trkpt lat="45.35467" lon="4.39327">
        <ele>965</ele>
        <time>2021-06-03T19:11:59Z</time>
      </trkpt>
      <trkpt lat="45.35539" lon="4.3924">
        <ele>968</ele>
        <time>2021-06-03T19:13:14Z</time>
      </trkpt>
      <trkpt lat="45.35611" lon="4.39149">
        <ele>968</ele>
        <time>2021-06-03T19:14:31Z</time>
      </trkpt>
      <trkpt lat="45.35653" lon="4.39154">
        <ele>965</ele>
        <time>2021-06-03T19:15:05Z</time>
      </trkpt>
      <trkpt lat="45.35738" lon="4.39146">
        <ele>960</ele>
        <time>2021-06-03T19:16:13Z</time>
      </trkpt>
      <trkpt lat="45.35822" lon="4.39152">
        <ele>964</ele>
        <time>2021-06-03T19:17:21Z</time>
      </trkpt>
      <trkpt lat="45.35907" lon="4.39195">
        <ele>961</ele>
        <time>2021-06-03T19:18:33Z</time>
      </trkpt>
      <trkpt lat="45.35981" lon="4.39228">
        <ele>953</ele>
        <time>2021-06-03T19:19:35Z</time>
      </trkpt>
      <trkpt lat="45.36018" lon="4.39216">
        <ele>951</ele>
        <time>2021-06-03T19:20:05Z</time>
      </trkpt>
      <trkpt lat="45.36037" lon="4.39152">
        <ele>951</ele>
        <time>2021-06-03T19:20:44Z</time>
      </trkpt>
      <trkpt lat="45.36057" lon="4.39072">
        <ele>945</ele>
        <time>2021-06-03T19:21:32Z</time>
      </trkpt>
      <trkpt lat="45.36036" lon="4.38923">
        <ele>940</ele>
        <time>2021-06-03T19:22:58Z</time>
      </trkpt>
      <trkpt lat="45.35997" lon="4.38869">
        <ele>942</ele>
        <time>2021-06-03T19:23:41Z</time>
      </trkpt>
      <trkpt lat="45.35949" lon="4.3879">
        <ele>936</ele>
        <time>2021-06-03T19:24:40Z</time>
      </trkpt>
      <trkpt lat="45.35938" lon="4.38772">
        <ele>934</ele>
        <time>2021-06-03T19:24:53Z</time>
      </trkpt>
      <trkpt lat="45.36015" lon="4.38644">
        <ele>918</ele>
        <time>2021-06-03T19:26:28Z</time>
      </trkpt>
      <trkpt lat="45.36092" lon="4.38536">
        <ele>909</ele>
        <time>2021-06-03T19:27:55Z</time>
      </trkpt>
      <trkpt lat="45.36123" lon="4.38492">
        <ele>906</ele>
        <time>2021-06-03T19:28:30Z</time>
      </trkpt>
      <trkpt lat="45.36132" lon="4.38326">
        <ele>898</ele>
        <time>2021-06-03T19:30:03Z</time>
      </trkpt>
      <trkpt lat="45.36137" lon="4.38274">
        <ele>895</ele>
        <time>2021-06-03T19:30:33Z</time>
      </trkpt>
      <trkpt lat="45.36156" lon="4.38242">
        <ele>893</ele>
        <time>2021-06-03T19:30:57Z</time>
      </trkpt>
      <trkpt lat="45.36189" lon="4.38195">
        <ele>894</ele>
        <time>2021-06-03T19:31:34Z</time>
      </trkpt>
      <trkpt lat="45.36241" lon="4.3818">
        <ele>891</ele>
        <time>2021-06-03T19:32:16Z</time>
      </trkpt>
      <trkpt lat="45.36297" lon="4.38142">
        <ele>888</ele>
        <time>2021-06-03T19:33:06Z</time>
      </trkpt>
      <trkpt lat="45.36334" lon="4.38101">
        <ele>887</ele>
        <time>2021-06-03T19:33:44Z</time>
      </trkpt>
    </trkseg>
  </trk>
</gpx>